TAF and METAR

Decoding for American and Canadian METARs and TAFs is not fully implemented.

Could not understand the following METAR

MMZO 192046Z 27010KT 12SM BKN020 BKN100 BKN200 29/26 A2974 RMK 8/131
No TAF available for Playa de Oro International Airport
Playa de Oro International Airport in Mexico at 8m

Latest 5 airports